Time,TemperatureF,DewpointF,PressureIn,WindDirection,WindDirectionDegrees,WindSpeedMPH,WindSpeedGustMPH,Humidity,HourlyPrecipIn,Conditions,Clouds,dailyrainin,SolarRadiationWatts/m^2,SoftwareType,DateUTC
2013-07-27 00:12:00,77.0,37.0,-100.00,North,2,5.0,11.0,24,0.00,,,0.00,0.000000,,2013-07-27 07:12:00,
2013-07-27 00:22:00,77.0,37.0,-100.00,North,2,5.0,11.0,24,0.00,,,0.00,0.000000,,2013-07-27 07:22:00,
2013-07-27 00:33:00,77.0,37.0,-100.00,North,2,5.0,11.0,24,0.00,,,0.00,0.000000,,2013-07-27 07:33:00,
2013-07-27 01:12:00,75.0,38.0,-100.00,North,354,6.0,10.0,26,0.00,,,0.00,0.000000,,2013-07-27 08:12:00,
2013-07-27 01:22:00,75.0,38.0,-100.00,North,354,6.0,10.0,26,0.00,,,0.00,0.000000,,2013-07-27 08:22:00,
2013-07-27 01:32:00,75.0,38.0,-100.00,North,354,6.0,10.0,26,0.00,,,0.00,0.000000,,2013-07-27 08:32:00,
2013-07-27 02:02:00,72.0,33.0,-100.00,NNW,347,4.0,15.0,24,0.00,,,0.00,0.000000,,2013-07-27 09:02:00,
2013-07-27 02:11:00,72.0,33.0,-100.00,NNW,347,4.0,15.0,24,0.00,,,0.00,0.000000,,2013-07-27 09:11:00,
2013-07-27 02:22:00,72.0,33.0,-100.00,NNW,347,4.0,15.0,24,0.00,,,0.00,0.000000,,2013-07-27 09:22:00,
2013-07-27 02:33:00,72.0,33.0,-100.00,NNW,347,4.0,15.0,24,0.00,,,0.00,0.000000,,2013-07-27 09:33:00,
2013-07-27 03:12:00,71.0,31.0,-100.00,WNW,288,4.0,9.0,23,0.00,,,0.00,0.000000,,2013-07-27 10:12:00,
2013-07-27 03:22:00,71.0,31.0,-100.00,WNW,288,4.0,9.0,23,0.00,,,0.00,0.000000,,2013-07-27 10:22:00,
2013-07-27 03:32:00,71.0,31.0,-100.00,WNW,288,4.0,9.0,23,0.00,,,0.00,0.000000,,2013-07-27 10:32:00,
2013-07-27 04:12:00,72.0,31.0,-100.00,North,6,4.0,9.0,22,0.00,,,0.00,0.000000,,2013-07-27 11:12:00,
2013-07-27 04:22:00,72.0,31.0,-100.00,North,6,4.0,9.0,22,0.00,,,0.00,0.000000,,2013-07-27 11:22:00,
2013-07-27 04:32:00,72.0,31.0,-100.00,North,6,4.0,9.0,22,0.00,,,0.00,0.000000,,2013-07-27 11:32:00,
2013-07-27 05:02:00,70.0,30.0,-100.00,North,8,6.0,9.0,23,0.00,,,-99.99,0.000000,,2013-07-27 12:02:00,
2013-07-27 05:12:00,70.0,30.0,-100.00,North,8,6.0,9.0,23,0.00,,,-99.99,0.000000,,2013-07-27 12:12:00,
2013-07-27 05:22:00,70.0,30.0,-100.00,North,8,6.0,9.0,23,0.00,,,-99.99,0.000000,,2013-07-27 12:22:00,
2013-07-27 05:33:00,70.0,30.0,-100.00,North,8,6.0,9.0,23,0.00,,,-99.99,0.000000,,2013-07-27 12:33:00,
2013-07-27 06:02:00,68.0,36.0,-100.00,North,356,5.0,11.0,31,0.00,,,0.00,2.000000,,2013-07-27 13:02:00,
2013-07-27 06:12:00,68.0,36.0,-100.00,North,356,5.0,11.0,31,0.00,,,0.00,2.000000,,2013-07-27 13:12:00,
2013-07-27 06:22:00,68.0,36.0,-100.00,North,356,5.0,11.0,31,0.00,,,0.00,2.000000,,2013-07-27 13:22:00,
2013-07-27 06:32:00,68.0,36.0,-100.00,North,356,5.0,11.0,31,0.00,,,0.00,2.000000,,2013-07-27 13:32:00,
2013-07-27 07:02:00,67.0,38.0,-100.00,NNW,336,2.0,9.0,34,0.00,,,0.00,56.000000,,2013-07-27 14:02:00,
2013-07-27 07:12:00,67.0,38.0,-100.00,NNW,336,2.0,9.0,34,0.00,,,0.00,56.000000,,2013-07-27 14:12:00,
2013-07-27 07:22:00,67.0,38.0,-100.00,NNW,336,2.0,9.0,34,0.00,,,0.00,56.000000,,2013-07-27 14:22:00,
2013-07-27 07:32:00,67.0,38.0,-100.00,NNW,336,2.0,9.0,34,0.00,,,0.00,56.000000,,2013-07-27 14:32:00,
2013-07-27 08:12:00,71.0,40.0,-100.00,NE,45,4.0,9.0,32,0.00,,,0.00,213.000000,,2013-07-27 15:12:00,
2013-07-27 08:22:00,71.0,40.0,-100.00,NE,45,4.0,9.0,32,0.00,,,0.00,213.000000,,2013-07-27 15:22:00,
2013-07-27 08:33:00,71.0,40.0,-100.00,NE,45,4.0,9.0,32,0.00,,,0.00,213.000000,,2013-07-27 15:33:00,
2013-07-27 09:02:00,77.0,40.0,-100.00,ENE,57,1.0,11.0,27,0.00,,,0.00,505.000000,,2013-07-27 16:02:00,
2013-07-27 09:12:00,77.0,40.0,-100.00,ENE,57,1.0,11.0,27,0.00,,,0.00,505.000000,,2013-07-27 16:12:00,
2013-07-27 09:22:00,77.0,40.0,-100.00,ENE,57,1.0,11.0,27,0.00,,,0.00,505.000000,,2013-07-27 16:22:00,
2013-07-27 09:33:00,77.0,40.0,-100.00,ENE,57,1.0,11.0,27,0.00,,,0.00,505.000000,,2013-07-27 16:33:00,
2013-07-27 10:12:00,82.0,33.0,-100.00,ENE,70,3.0,9.0,17,0.00,,,0.00,720.000000,,2013-07-27 17:12:00,
2013-07-27 10:22:00,82.0,33.0,-100.00,ENE,70,3.0,9.0,17,0.00,,,0.00,720.000000,,2013-07-27 17:22:00,
2013-07-27 10:32:00,82.0,33.0,-100.00,ENE,70,3.0,9.0,17,0.00,,,0.00,720.000000,,2013-07-27 17:32:00,
2013-07-27 11:02:00,85.0,34.0,-100.00,ESE,105,3.0,9.0,16,0.00,,,-99.99,902.000000,,2013-07-27 18:02:00,
2013-07-27 11:12:00,85.0,34.0,-100.00,ESE,105,3.0,9.0,16,0.00,,,-99.99,902.000000,,2013-07-27 18:12:00,
2013-07-27 11:22:00,85.0,34.0,-100.00,ESE,105,3.0,9.0,16,0.00,,,-99.99,902.000000,,2013-07-27 18:22:00,
2013-07-27 11:32:00,85.0,34.0,-100.00,ESE,105,3.0,9.0,16,0.00,,,-99.99,902.000000,,2013-07-27 18:32:00,
2013-07-27 12:02:00,87.0,38.0,-100.00,East,90,7.0,12.0,18,0.00,,,0.00,1036.000000,,2013-07-27 19:02:00,
2013-07-27 12:12:00,87.0,38.0,-100.00,East,90,7.0,12.0,18,0.00,,,0.00,1036.000000,,2013-07-27 19:12:00,
2013-07-27 12:22:00,87.0,38.0,-100.00,East,90,7.0,12.0,18,0.00,,,0.00,1036.000000,,2013-07-27 19:22:00,
2013-07-27 12:32:00,87.0,38.0,-100.00,East,90,7.0,12.0,18,0.00,,,0.00,1036.000000,,2013-07-27 19:32:00,
2013-07-27 13:02:00,90.0,36.0,-100.00,SE,146,3.0,12.0,15,0.00,,,0.00,1121.000000,,2013-07-27 20:02:00,
2013-07-27 13:12:00,90.0,36.0,-100.00,SE,146,3.0,12.0,15,0.00,,,0.00,1121.000000,,2013-07-27 20:12:00,
2013-07-27 13:22:00,90.0,36.0,-100.00,SE,146,3.0,12.0,15,0.00,,,0.00,1121.000000,,2013-07-27 20:22:00,
2013-07-27 13:32:00,90.0,36.0,-100.00,SE,146,3.0,12.0,15,0.00,,,0.00,1121.000000,,2013-07-27 20:32:00,
2013-07-27 14:02:00,89.0,32.0,-100.00,ENE,66,7.0,12.0,13,0.00,,,0.00,1152.000000,,2013-07-27 21:02:00,
2013-07-27 14:12:00,89.0,32.0,-100.00,ENE,66,7.0,12.0,13,0.00,,,0.00,1152.000000,,2013-07-27 21:12:00,
2013-07-27 14:22:00,89.0,32.0,-100.00,ENE,66,7.0,12.0,13,0.00,,,0.00,1152.000000,,2013-07-27 21:22:00,
2013-07-27 14:33:00,89.0,32.0,-100.00,ENE,66,7.0,12.0,13,0.00,,,0.00,1152.000000,,2013-07-27 21:33:00,
2013-07-27 15:02:00,91.0,31.0,-100.00,ENE,66,5.0,14.0,12,0.00,,,0.00,1127.000000,,2013-07-27 22:02:00,
2013-07-27 15:12:00,91.0,31.0,-100.00,ENE,66,5.0,14.0,12,0.00,,,0.00,1127.000000,,2013-07-27 22:12:00,
2013-07-27 15:22:00,91.0,31.0,-100.00,ENE,66,5.0,14.0,12,0.00,,,0.00,1127.000000,,2013-07-27 22:22:00,
2013-07-27 15:32:00,91.0,31.0,-100.00,ENE,66,5.0,14.0,12,0.00,,,0.00,1127.000000,,2013-07-27 22:32:00,
2013-07-27 16:02:00,92.0,28.0,-100.00,North,4,6.0,16.0,10,0.00,,,0.00,1039.000000,,2013-07-27 23:02:00,
2013-07-27 16:12:00,92.0,28.0,-100.00,North,4,6.0,16.0,10,0.00,,,0.00,1039.000000,,2013-07-27 23:12:00,
2013-07-27 17:02:00,91.0,31.0,-100.00,ENE,67,6.0,15.0,12,0.00,,,0.00,887.000000,,2013-07-28 00:02:00,
2013-07-27 17:12:00,91.0,31.0,-100.00,ENE,67,6.0,15.0,12,0.00,,,0.00,887.000000,,2013-07-28 00:12:00,
2013-07-27 17:22:00,91.0,31.0,-100.00,ENE,67,6.0,15.0,12,0.00,,,0.00,887.000000,,2013-07-28 00:22:00,
2013-07-27 17:32:00,91.0,31.0,-100.00,ENE,67,6.0,15.0,12,0.00,,,0.00,887.000000,,2013-07-28 00:32:00,
2013-07-27 18:02:00,92.0,30.0,-100.00,East,85,3.0,14.0,11,0.00,,,0.00,698.000000,,2013-07-28 01:02:00,
2013-07-27 18:12:00,92.0,30.0,-100.00,East,85,3.0,14.0,11,0.00,,,0.00,698.000000,,2013-07-28 01:12:00,
2013-07-27 18:22:00,92.0,30.0,-100.00,East,85,3.0,14.0,11,0.00,,,0.00,698.000000,,2013-07-28 01:22:00,
2013-07-27 18:32:00,92.0,30.0,-100.00,East,85,3.0,14.0,11,0.00,,,0.00,698.000000,,2013-07-28 01:32:00,
2013-07-27 19:02:00,91.0,29.0,-100.00,ENE,61,5.0,9.0,11,0.00,,,0.00,248.000000,,2013-07-28 02:02:00,
2013-07-27 19:12:00,91.0,29.0,-100.00,ENE,61,5.0,9.0,11,0.00,,,0.00,248.000000,,2013-07-28 02:12:00,
2013-07-27 19:22:00,91.0,29.0,-100.00,ENE,61,5.0,9.0,11,0.00,,,0.00,248.000000,,2013-07-28 02:22:00,
2013-07-27 19:32:00,91.0,29.0,-100.00,ENE,61,5.0,9.0,11,0.00,,,0.00,248.000000,,2013-07-28 02:32:00,
2013-07-27 20:02:00,88.0,29.0,-100.00,NE,41,0.0,8.0,12,0.00,,,0.00,103.000000,,2013-07-28 03:02:00,
2013-07-27 20:12:00,88.0,29.0,-100.00,NE,41,0.0,8.0,12,0.00,,,0.00,103.000000,,2013-07-28 03:12:00,
2013-07-27 20:22:00,88.0,29.0,-100.00,NE,41,0.0,8.0,12,0.00,,,0.00,103.000000,,2013-07-28 03:22:00,
2013-07-27 20:32:00,88.0,29.0,-100.00,NE,41,0.0,8.0,12,0.00,,,0.00,103.000000,,2013-07-28 03:32:00,
2013-07-27 21:22:00,78.0,32.0,-100.00,NW,324,1.0,6.0,19,0.00,,,0.00,68.000000,,2013-07-28 04:22:00,
2013-07-27 21:32:00,78.0,32.0,-100.00,NW,324,1.0,6.0,19,0.00,,,0.00,68.000000,,2013-07-28 04:32:00,
2013-07-27 22:02:00,78.0,32.0,-100.00,North,350,5.0,11.0,19,0.00,,,0.00,0.000000,,2013-07-28 05:02:00,
2013-07-27 22:12:00,78.0,32.0,-100.00,North,350,5.0,11.0,19,0.00,,,0.00,0.000000,,2013-07-28 05:12:00,
2013-07-27 22:22:00,78.0,32.0,-100.00,North,350,5.0,11.0,19,0.00,,,0.00,0.000000,,2013-07-28 05:22:00,
2013-07-27 22:32:00,78.0,32.0,-100.00,North,350,5.0,11.0,19,0.00,,,0.00,0.000000,,2013-07-28 05:32:00,
2013-07-27 23:02:00,76.0,36.0,-100.00,SW,215,3.0,8.0,23,0.00,,,0.00,0.000000,,2013-07-28 06:02:00,
2013-07-27 23:12:00,76.0,36.0,-100.00,SW,215,3.0,8.0,23,0.00,,,0.00,0.000000,,2013-07-28 06:12:00,
2013-07-27 23:22:00,76.0,36.0,-100.00,SW,215,3.0,8.0,23,0.00,,,0.00,0.000000,,2013-07-28 06:22:00,
2013-07-27 23:32:00,76.0,36.0,-100.00,SW,215,3.0,8.0,23,0.00,,,0.00,0.000000,,2013-07-28 06:32:00,